sensor_id;sensor_type;location;lat;lon;timestamp;temperature;humidity
20416;DHT22;10367;52.202;5.996;2024-02-21T00:01:03;9.20;99.90
20416;DHT22;10367;52.202;5.996;2024-02-21T00:03:34;9.20;99.90
20416;DHT22;10367;52.202;5.996;2024-02-21T00:06:03;9.20;99.90
20416;DHT22;10367;52.202;5.996;2024-02-21T00:08:32;9.30;99.90
20416;DHT22;10367;52.202;5.996;2024-02-21T00:11:01;9.30;99.90
20416;DHT22;10367;52.202;5.996;2024-02-21T00:13:30;9.30;99.90
20416;DHT22;10367;52.202;5.996;2024-02-21T00:16:00;9.30;99.90
20416;DHT22;10367;52.202;5.996;2024-02-21T00:18:29;9.30;99.90
20416;DHT22;10367;52.202;5.996;2024-02-21T00:20:59;9.30;99.90
20416;DHT22;10367;52.202;5.996;2024-02-21T00:23:29;9.30;99.90
20416;DHT22;10367;52.202;5.996;2024-02-21T00:25:58;9.30;99.90
20416;DHT22;10367;52.202;5.996;2024-02-21T00:28:26;9.30;99.90
20416;DHT22;10367;52.202;5.996;2024-02-21T00:30:55;9.30;99.90
20416;DHT22;10367;52.202;5.996;2024-02-21T00:33:24;9.30;99.90
20416;DHT22;10367;52.202;5.996;2024-02-21T00:35:53;9.30;99.90
20416;DHT22;10367;52.202;5.996;2024-02-21T00:38:23;9.30;99.90
20416;DHT22;10367;52.202;5.996;2024-02-21T00:40:52;9.30;99.90
20416;DHT22;10367;52.202;5.996;2024-02-21T00:43:21;9.40;99.90
20416;DHT22;10367;52.202;5.996;2024-02-21T00:45:51;9.30;99.90
20416;DHT22;10367;52.202;5.996;2024-02-21T00:48:19;9.30;99.90
20416;DHT22;10367;52.202;5.996;2024-02-21T00:50:48;9.30;99.90
20416;DHT22;10367;52.202;5.996;2024-02-21T00:53:17;9.40;99.90
20416;DHT22;10367;52.202;5.996;2024-02-21T00:55:47;9.40;99.90
20416;DHT22;10367;52.202;5.996;2024-02-21T00:58:16;9.40;99.90
20416;DHT22;10367;52.202;5.996;2024-02-21T01:00:45;9.40;99.90
20416;DHT22;10367;52.202;5.996;2024-02-21T01:03:13;9.40;99.90
20416;DHT22;10367;52.202;5.996;2024-02-21T01:05:42;9.40;99.90
20416;DHT22;10367;52.202;5.996;2024-02-21T01:08:11;9.40;99.90
20416;DHT22;10367;52.202;5.996;2024-02-21T01:10:40;9.40;99.90
20416;DHT22;10367;52.202;5.996;2024-02-21T01:13:10;9.40;99.90
20416;DHT22;10367;52.202;5.996;2024-02-21T01:15:39;9.40;99.90
20416;DHT22;10367;52.202;5.996;2024-02-21T01:18:07;9.40;99.90
20416;DHT22;10367;52.202;5.996;2024-02-21T01:20:36;9.40;99.90
20416;DHT22;10367;52.202;5.996;2024-02-21T01:23:05;9.40;99.90
20416;DHT22;10367;52.202;5.996;2024-02-21T01:25:34;9.40;99.90
20416;DHT22;10367;52.202;5.996;2024-02-21T01:28:04;9.40;99.90
20416;DHT22;10367;52.202;5.996;2024-02-21T01:30:35;9.40;99.90
20416;DHT22;10367;52.202;5.996;2024-02-21T01:33:04;9.40;99.90
20416;DHT22;10367;52.202;5.996;2024-02-21T01:35:33;9.40;99.90
20416;DHT22;10367;52.202;5.996;2024-02-21T01:38:02;9.40;99.90
20416;DHT22;10367;52.202;5.996;2024-02-21T01:40:32;9.40;99.90
20416;DHT22;10367;52.202;5.996;2024-02-21T01:43:01;9.40;99.90
20416;DHT22;10367;52.202;5.996;2024-02-21T01:45:29;9.40;99.90
20416;DHT22;10367;52.202;5.996;2024-02-21T01:48:00;9.40;99.90
20416;DHT22;10367;52.202;5.996;2024-02-21T01:50:29;9.40;99.90
20416;DHT22;10367;52.202;5.996;2024-02-21T01:52:58;9.40;99.90
20416;DHT22;10367;52.202;5.996;2024-02-21T01:55:28;9.40;99.90
20416;DHT22;10367;52.202;5.996;2024-02-21T01:57:57;9.40;99.90
20416;DHT22;10367;52.202;5.996;2024-02-21T02:00:26;9.40;99.90
20416;DHT22;10367;52.202;5.996;2024-02-21T02:02:55;9.40;99.90
20416;DHT22;10367;52.202;5.996;2024-02-21T02:05:26;9.40;99.90
20416;DHT22;10367;52.202;5.996;2024-02-21T02:07:55;9.40;99.90
20416;DHT22;10367;52.202;5.996;2024-02-21T02:10:24;9.40;99.90
20416;DHT22;10367;52.202;5.996;2024-02-21T02:12:54;9.40;99.90
20416;DHT22;10367;52.202;5.996;2024-02-21T02:15:23;9.40;99.90
20416;DHT22;10367;52.202;5.996;2024-02-21T02:17:52;9.40;99.90
20416;DHT22;10367;52.202;5.996;2024-02-21T02:20:21;9.40;99.90
20416;DHT22;10367;52.202;5.996;2024-02-21T02:22:51;9.40;99.90
20416;DHT22;10367;52.202;5.996;2024-02-21T02:25:21;9.40;99.90
20416;DHT22;10367;52.202;5.996;2024-02-21T02:27:50;9.40;99.90
20416;DHT22;10367;52.202;5.996;2024-02-21T02:30:22;9.40;99.90
20416;DHT22;10367;52.202;5.996;2024-02-21T02:32:51;9.40;99.90
20416;DHT22;10367;52.202;5.996;2024-02-21T02:35:20;9.40;99.90
20416;DHT22;10367;52.202;5.996;2024-02-21T02:37:49;9.40;99.90
20416;DHT22;10367;52.202;5.996;2024-02-21T02:40:18;9.40;99.90
20416;DHT22;10367;52.202;5.996;2024-02-21T02:42:48;9.40;99.90
20416;DHT22;10367;52.202;5.996;2024-02-21T02:45:17;9.40;99.90
20416;DHT22;10367;52.202;5.996;2024-02-21T02:47:49;9.40;99.90
20416;DHT22;10367;52.202;5.996;2024-02-21T02:50:18;9.40;99.90
20416;DHT22;10367;52.202;5.996;2024-02-21T02:52:47;9.40;99.90
20416;DHT22;10367;52.202;5.996;2024-02-21T02:55:16;9.40;99.90
20416;DHT22;10367;52.202;5.996;2024-02-21T02:57:45;9.40;99.90
20416;DHT22;10367;52.202;5.996;2024-02-21T03:00:16;9.40;99.90
20416;DHT22;10367;52.202;5.996;2024-02-21T03:02:45;9.40;99.90
20416;DHT22;10367;52.202;5.996;2024-02-21T03:05:16;9.40;99.90
20416;DHT22;10367;52.202;5.996;2024-02-21T03:07:46;9.30;99.90
20416;DHT22;10367;52.202;5.996;2024-02-21T03:10:15;9.40;99.90
20416;DHT22;10367;52.202;5.996;2024-02-21T03:12:46;9.30;99.90
20416;DHT22;10367;52.202;5.996;2024-02-21T03:15:17;9.40;99.90
20416;DHT22;10367;52.202;5.996;2024-02-21T03:17:45;9.30;99.90
20416;DHT22;10367;52.202;5.996;2024-02-21T03:20:14;9.30;99.90
20416;DHT22;10367;52.202;5.996;2024-02-21T03:22:43;9.30;99.90
20416;DHT22;10367;52.202;5.996;2024-02-21T03:25:12;9.30;99.90
20416;DHT22;10367;52.202;5.996;2024-02-21T03:27:42;9.30;99.90
20416;DHT22;10367;52.202;5.996;2024-02-21T03:30:12;9.30;99.90
20416;DHT22;10367;52.202;5.996;2024-02-21T03:32:42;9.30;99.90
20416;DHT22;10367;52.202;5.996;2024-02-21T03:35:11;9.30;99.90
20416;DHT22;10367;52.202;5.996;2024-02-21T03:37:40;9.30;99.90
20416;DHT22;10367;52.202;5.996;2024-02-21T03:40:10;9.30;99.90
20416;DHT22;10367;52.202;5.996;2024-02-21T03:42:39;9.30;99.90
20416;DHT22;10367;52.202;5.996;2024-02-21T03:45:09;9.30;99.90
20416;DHT22;10367;52.202;5.996;2024-02-21T03:47:42;9.30;99.90
20416;DHT22;10367;52.202;5.996;2024-02-21T03:50:11;9.30;99.90
20416;DHT22;10367;52.202;5.996;2024-02-21T03:52:40;9.30;99.90
20416;DHT22;10367;52.202;5.996;2024-02-21T03:55:09;9.30;99.90
20416;DHT22;10367;52.202;5.996;2024-02-21T03:57:38;9.30;99.90
20416;DHT22;10367;52.202;5.996;2024-02-21T04:00:07;9.30;99.90
20416;DHT22;10367;52.202;5.996;2024-02-21T04:02:39;9.30;99.90
20416;DHT22;10367;52.202;5.996;2024-02-21T04:05:09;9.30;99.90
20416;DHT22;10367;52.202;5.996;2024-02-21T04:07:39;9.30;99.90
20416;DHT22;10367;52.202;5.996;2024-02-21T04:10:08;9.30;99.90
20416;DHT22;10367;52.202;5.996;2024-02-21T04:12:37;9.30;99.90
20416;DHT22;10367;52.202;5.996;2024-02-21T04:15:07;9.30;99.90
20416;DHT22;10367;52.202;5.996;2024-02-21T04:17:36;9.30;99.90
20416;DHT22;10367;52.202;5.996;2024-02-21T04:20:06;9.30;99.90
20416;DHT22;10367;52.202;5.996;2024-02-21T04:22:37;9.30;99.90
20416;DHT22;10367;52.202;5.996;2024-02-21T04:25:07;9.30;99.90
20416;DHT22;10367;52.202;5.996;2024-02-21T04:27:36;9.30;99.90
20416;DHT22;10367;52.202;5.996;2024-02-21T04:30:06;9.20;99.90
20416;DHT22;10367;52.202;5.996;2024-02-21T04:32:35;9.20;99.90
20416;DHT22;10367;52.202;5.996;2024-02-21T04:35:04;9.20;99.90
20416;DHT22;10367;52.202;5.996;2024-02-21T04:37:33;9.20;99.90
20416;DHT22;10367;52.202;5.996;2024-02-21T04:40:04;9.20;99.90
20416;DHT22;10367;52.202;5.996;2024-02-21T04:42:32;9.20;99.90
20416;DHT22;10367;52.202;5.996;2024-02-21T04:45:01;9.20;99.90
20416;DHT22;10367;52.202;5.996;2024-02-21T04:47:30;9.20;99.90
20416;DHT22;10367;52.202;5.996;2024-02-21T04:49:59;9.20;99.90
20416;DHT22;10367;52.202;5.996;2024-02-21T04:52:28;9.20;99.90
20416;DHT22;10367;52.202;5.996;2024-02-21T04:54:57;9.20;99.90
20416;DHT22;10367;52.202;5.996;2024-02-21T04:57:27;9.20;99.90
20416;DHT22;10367;52.202;5.996;2024-02-21T04:59:56;9.20;99.90
20416;DHT22;10367;52.202;5.996;2024-02-21T05:02:24;9.20;99.90
20416;DHT22;10367;52.202;5.996;2024-02-21T05:04:54;9.20;99.90
20416;DHT22;10367;52.202;5.996;2024-02-21T05:07:22;9.20;99.90
20416;DHT22;10367;52.202;5.996;2024-02-21T05:09:51;9.10;99.90
20416;DHT22;10367;52.202;5.996;2024-02-21T05:12:20;9.10;99.90
20416;DHT22;10367;52.202;5.996;2024-02-21T05:14:50;9.10;99.90
20416;DHT22;10367;52.202;5.996;2024-02-21T05:17:19;9.10;99.90
20416;DHT22;10367;52.202;5.996;2024-02-21T05:19:48;9.00;99.90
20416;DHT22;10367;52.202;5.996;2024-02-21T05:22:16;9.00;99.90
20416;DHT22;10367;52.202;5.996;2024-02-21T05:24:45;9.00;99.90
20416;DHT22;10367;52.202;5.996;2024-02-21T05:27:14;9.00;99.90
20416;DHT22;10367;52.202;5.996;2024-02-21T05:29:43;9.00;99.90
20416;DHT22;10367;52.202;5.996;2024-02-21T05:32:13;8.90;99.90
20416;DHT22;10367;52.202;5.996;2024-02-21T05:34:42;9.00;99.90
20416;DHT22;10367;52.202;5.996;2024-02-21T05:37:11;8.90;99.90
20416;DHT22;10367;52.202;5.996;2024-02-21T05:39:43;8.90;99.90
20416;DHT22;10367;52.202;5.996;2024-02-21T05:42:12;8.90;99.90
20416;DHT22;10367;52.202;5.996;2024-02-21T05:44:40;8.90;99.90
20416;DHT22;10367;52.202;5.996;2024-02-21T05:47:13;8.90;99.90
20416;DHT22;10367;52.202;5.996;2024-02-21T05:49:43;8.90;99.90
20416;DHT22;10367;52.202;5.996;2024-02-21T05:52:12;8.90;99.90
20416;DHT22;10367;52.202;5.996;2024-02-21T05:54:41;8.90;99.90
20416;DHT22;10367;52.202;5.996;2024-02-21T05:57:09;8.90;99.90
20416;DHT22;10367;52.202;5.996;2024-02-21T05:59:44;8.90;99.90
20416;DHT22;10367;52.202;5.996;2024-02-21T06:02:15;8.80;99.90
20416;DHT22;10367;52.202;5.996;2024-02-21T06:04:43;8.80;99.90
20416;DHT22;10367;52.202;5.996;2024-02-21T06:07:14;8.80;99.90
20416;DHT22;10367;52.202;5.996;2024-02-21T06:09:43;8.80;99.90
20416;DHT22;10367;52.202;5.996;2024-02-21T06:12:12;8.80;99.90
20416;DHT22;10367;52.202;5.996;2024-02-21T06:14:41;8.80;99.90
20416;DHT22;10367;52.202;5.996;2024-02-21T06:17:10;8.80;99.90
20416;DHT22;10367;52.202;5.996;2024-02-21T06:19:44;8.80;99.90
20416;DHT22;10367;52.202;5.996;2024-02-21T06:22:13;8.80;99.90
20416;DHT22;10367;52.202;5.996;2024-02-21T06:24:43;8.80;99.90
20416;DHT22;10367;52.202;5.996;2024-02-21T06:27:12;8.80;99.90
20416;DHT22;10367;52.202;5.996;2024-02-21T06:29:43;8.80;99.90
20416;DHT22;10367;52.202;5.996;2024-02-21T06:32:13;8.80;99.90
20416;DHT22;10367;52.202;5.996;2024-02-21T06:34:44;8.80;99.90
20416;DHT22;10367;52.202;5.996;2024-02-21T06:37:13;8.80;99.90
20416;DHT22;10367;52.202;5.996;2024-02-21T06:39:42;8.80;99.90
20416;DHT22;10367;52.202;5.996;2024-02-21T06:42:14;8.80;99.90
20416;DHT22;10367;52.202;5.996;2024-02-21T06:44:44;8.80;99.90
20416;DHT22;10367;52.202;5.996;2024-02-21T06:47:13;8.80;99.90
20416;DHT22;10367;52.202;5.996;2024-02-21T06:49:43;8.80;99.90
20416;DHT22;10367;52.202;5.996;2024-02-21T06:52:17;8.80;99.90
20416;DHT22;10367;52.202;5.996;2024-02-21T06:54:47;8.80;99.90
20416;DHT22;10367;52.202;5.996;2024-02-21T06:57:16;8.90;99.90
20416;DHT22;10367;52.202;5.996;2024-02-21T06:59:45;8.90;99.90
20416;DHT22;10367;52.202;5.996;2024-02-21T07:02:14;8.90;99.90
20416;DHT22;10367;52.202;5.996;2024-02-21T07:04:45;8.90;99.90
20416;DHT22;10367;52.202;5.996;2024-02-21T07:07:14;8.90;99.90
20416;DHT22;10367;52.202;5.996;2024-02-21T07:09:43;8.90;99.90
20416;DHT22;10367;52.202;5.996;2024-02-21T07:12:12;8.90;99.90
20416;DHT22;10367;52.202;5.996;2024-02-21T07:14:41;8.90;99.90
20416;DHT22;10367;52.202;5.996;2024-02-21T07:17:12;9.00;99.90
20416;DHT22;10367;52.202;5.996;2024-02-21T07:19:41;8.90;99.90
20416;DHT22;10367;52.202;5.996;2024-02-21T07:22:11;9.00;99.90
20416;DHT22;10367;52.202;5.996;2024-02-21T07:24:40;9.00;99.90
20416;DHT22;10367;52.202;5.996;2024-02-21T07:27:09;9.00;99.90
20416;DHT22;10367;52.202;5.996;2024-02-21T07:29:38;9.00;99.90
20416;DHT22;10367;52.202;5.996;2024-02-21T07:32:07;9.00;99.90
20416;DHT22;10367;52.202;5.996;2024-02-21T07:34:36;9.00;99.90
20416;DHT22;10367;52.202;5.996;2024-02-21T07:37:05;9.00;99.90
20416;DHT22;10367;52.202;5.996;2024-02-21T07:39:39;9.10;99.90
20416;DHT22;10367;52.202;5.996;2024-02-21T07:42:08;9.10;99.90
20416;DHT22;10367;52.202;5.996;2024-02-21T07:44:40;9.10;99.90
20416;DHT22;10367;52.202;5.996;2024-02-21T07:47:08;9.10;99.90
20416;DHT22;10367;52.202;5.996;2024-02-21T07:49:44;9.10;99.90
20416;DHT22;10367;52.202;5.996;2024-02-21T07:52:13;9.10;99.90
20416;DHT22;10367;52.202;5.996;2024-02-21T07:54:43;9.10;99.90
20416;DHT22;10367;52.202;5.996;2024-02-21T07:57:12;9.20;99.90
20416;DHT22;10367;52.202;5.996;2024-02-21T07:59:41;9.20;99.90
20416;DHT22;10367;52.202;5.996;2024-02-21T08:02:10;9.20;99.90
20416;DHT22;10367;52.202;5.996;2024-02-21T08:04:39;9.20;99.90
20416;DHT22;10367;52.202;5.996;2024-02-21T08:07:08;9.20;99.90
20416;DHT22;10367;52.202;5.996;2024-02-21T08:09:39;9.20;99.90
20416;DHT22;10367;52.202;5.996;2024-02-21T08:12:09;9.30;99.90
20416;DHT22;10367;52.202;5.996;2024-02-21T08:14:38;9.40;99.90
20416;DHT22;10367;52.202;5.996;2024-02-21T08:17:07;9.40;99.90
20416;DHT22;10367;52.202;5.996;2024-02-21T08:19:36;9.40;99.90
20416;DHT22;10367;52.202;5.996;2024-02-21T08:22:07;9.50;99.90
20416;DHT22;10367;52.202;5.996;2024-02-21T08:24:35;9.50;99.90
20416;DHT22;10367;52.202;5.996;2024-02-21T08:27:05;9.50;99.90
20416;DHT22;10367;52.202;5.996;2024-02-21T08:29:35;9.50;99.90
20416;DHT22;10367;52.202;5.996;2024-02-21T08:32:04;9.50;99.90
20416;DHT22;10367;52.202;5.996;2024-02-21T08:34:33;9.60;99.90
20416;DHT22;10367;52.202;5.996;2024-02-21T08:37:02;9.60;99.90
20416;DHT22;10367;52.202;5.996;2024-02-21T08:39:31;9.60;99.90
20416;DHT22;10367;52.202;5.996;2024-02-21T08:42:00;9.70;99.90
20416;DHT22;10367;52.202;5.996;2024-02-21T08:44:29;9.70;99.90
20416;DHT22;10367;52.202;5.996;2024-02-21T08:47:01;9.70;99.90
20416;DHT22;10367;52.202;5.996;2024-02-21T08:49:32;9.70;99.90
20416;DHT22;10367;52.202;5.996;2024-02-21T08:52:01;9.70;99.90
20416;DHT22;10367;52.202;5.996;2024-02-21T08:54:31;9.70;99.90
20416;DHT22;10367;52.202;5.996;2024-02-21T08:57:01;9.80;99.90
20416;DHT22;10367;52.202;5.996;2024-02-21T08:59:31;9.80;99.90
20416;DHT22;10367;52.202;5.996;2024-02-21T09:02:02;9.90;99.90
20416;DHT22;10367;52.202;5.996;2024-02-21T09:04:31;9.90;99.90
20416;DHT22;10367;52.202;5.996;2024-02-21T09:07:00;9.90;99.90
20416;DHT22;10367;52.202;5.996;2024-02-21T09:09:29;10.00;99.90
20416;DHT22;10367;52.202;5.996;2024-02-21T09:12:00;10.00;99.90
20416;DHT22;10367;52.202;5.996;2024-02-21T09:14:33;10.00;99.90
20416;DHT22;10367;52.202;5.996;2024-02-21T09:17:04;10.10;99.90
20416;DHT22;10367;52.202;5.996;2024-02-21T09:19:35;10.10;99.90
20416;DHT22;10367;52.202;5.996;2024-02-21T09:22:04;10.10;99.90
20416;DHT22;10367;52.202;5.996;2024-02-21T09:24:32;10.10;99.90
20416;DHT22;10367;52.202;5.996;2024-02-21T09:27:01;10.10;99.90
20416;DHT22;10367;52.202;5.996;2024-02-21T09:29:31;10.10;99.90
20416;DHT22;10367;52.202;5.996;2024-02-21T09:32:00;10.20;99.90
20416;DHT22;10367;52.202;5.996;2024-02-21T09:34:31;10.20;99.90
20416;DHT22;10367;52.202;5.996;2024-02-21T09:37:01;10.30;99.90
20416;DHT22;10367;52.202;5.996;2024-02-21T09:39:29;10.30;99.90
20416;DHT22;10367;52.202;5.996;2024-02-21T09:42:00;10.30;99.90
20416;DHT22;10367;52.202;5.996;2024-02-21T09:44:34;10.40;99.90
20416;DHT22;10367;52.202;5.996;2024-02-21T09:47:07;10.40;99.90
20416;DHT22;10367;52.202;5.996;2024-02-21T09:49:40;10.40;99.90
20416;DHT22;10367;52.202;5.996;2024-02-21T09:52:12;10.40;99.90
20416;DHT22;10367;52.202;5.996;2024-02-21T09:54:46;10.50;99.90
20416;DHT22;10367;52.202;5.996;2024-02-21T09:57:16;10.50;99.90
20416;DHT22;10367;52.202;5.996;2024-02-21T09:59:45;10.50;99.90
20416;DHT22;10367;52.202;5.996;2024-02-21T10:02:14;10.60;99.90
20416;DHT22;10367;52.202;5.996;2024-02-21T10:04:44;10.60;99.90
20416;DHT22;10367;52.202;5.996;2024-02-21T10:07:13;10.70;99.90
20416;DHT22;10367;52.202;5.996;2024-02-21T10:09:42;10.70;99.90
20416;DHT22;10367;52.202;5.996;2024-02-21T10:12:16;10.70;99.90
20416;DHT22;10367;52.202;5.996;2024-02-21T10:14:46;10.70;99.90
20416;DHT22;10367;52.202;5.996;2024-02-21T10:17:16;10.70;99.90
20416;DHT22;10367;52.202;5.996;2024-02-21T10:19:48;10.70;99.90
20416;DHT22;10367;52.202;5.996;2024-02-21T10:22:18;10.70;99.90
20416;DHT22;10367;52.202;5.996;2024-02-21T10:24:48;10.60;99.90
20416;DHT22;10367;52.202;5.996;2024-02-21T10:27:17;10.60;99.90
20416;DHT22;10367;52.202;5.996;2024-02-21T10:29:49;10.60;99.90
20416;DHT22;10367;52.202;5.996;2024-02-21T10:32:19;10.70;99.90
20416;DHT22;10367;52.202;5.996;2024-02-21T10:34:49;10.80;99.90
20416;DHT22;10367;52.202;5.996;2024-02-21T10:37:21;10.70;99.90
20416;DHT22;10367;52.202;5.996;2024-02-21T10:39:49;10.70;99.90
20416;DHT22;10367;52.202;5.996;2024-02-21T10:42:21;10.70;99.90
20416;DHT22;10367;52.202;5.996;2024-02-21T10:44:51;10.70;99.90
20416;DHT22;10367;52.202;5.996;2024-02-21T10:47:23;10.70;99.90
20416;DHT22;10367;52.202;5.996;2024-02-21T10:49:59;10.70;99.90
20416;DHT22;10367;52.202;5.996;2024-02-21T10:52:42;10.70;99.90
20416;DHT22;10367;52.202;5.996;2024-02-21T10:55:19;10.90;99.90
20416;DHT22;10367;52.202;5.996;2024-02-21T10:57:51;10.80;99.90
20416;DHT22;10367;52.202;5.996;2024-02-21T11:00:20;10.90;99.90
20416;DHT22;10367;52.202;5.996;2024-02-21T11:02:54;10.90;99.90
20416;DHT22;10367;52.202;5.996;2024-02-21T11:05:25;10.90;99.90
20416;DHT22;10367;52.202;5.996;2024-02-21T11:07:56;10.90;99.90
20416;DHT22;10367;52.202;5.996;2024-02-21T11:10:26;10.80;99.90
20416;DHT22;10367;52.202;5.996;2024-02-21T11:13:06;10.70;99.90
20416;DHT22;10367;52.202;5.996;2024-02-21T11:15:36;10.70;99.90
20416;DHT22;10367;52.202;5.996;2024-02-21T11:18:05;10.60;99.90
20416;DHT22;10367;52.202;5.996;2024-02-21T11:20:37;10.60;99.90
20416;DHT22;10367;52.202;5.996;2024-02-21T11:23:06;10.50;99.90
20416;DHT22;10367;52.202;5.996;2024-02-21T11:25:35;10.60;99.90
20416;DHT22;10367;52.202;5.996;2024-02-21T11:28:04;10.60;99.90
20416;DHT22;10367;52.202;5.996;2024-02-21T11:30:36;10.60;99.90
20416;DHT22;10367;52.202;5.996;2024-02-21T11:33:08;10.60;99.90
20416;DHT22;10367;52.202;5.996;2024-02-21T11:35:39;10.60;99.90
20416;DHT22;10367;52.202;5.996;2024-02-21T11:38:09;10.70;99.90
20416;DHT22;10367;52.202;5.996;2024-02-21T11:40:41;10.70;99.90
20416;DHT22;10367;52.202;5.996;2024-02-21T11:43:10;10.80;99.90
20416;DHT22;10367;52.202;5.996;2024-02-21T11:45:39;10.80;99.90
20416;DHT22;10367;52.202;5.996;2024-02-21T11:48:08;10.70;99.90
20416;DHT22;10367;52.202;5.996;2024-02-21T11:50:38;10.60;99.90
20416;DHT22;10367;52.202;5.996;2024-02-21T11:53:07;10.60;99.90
20416;DHT22;10367;52.202;5.996;2024-02-21T11:55:36;10.50;99.90
20416;DHT22;10367;52.202;5.996;2024-02-21T11:58:08;10.50;99.90
20416;DHT22;10367;52.202;5.996;2024-02-21T12:00:37;10.50;99.90
20416;DHT22;10367;52.202;5.996;2024-02-21T12:03:07;10.40;99.90
20416;DHT22;10367;52.202;5.996;2024-02-21T12:05:36;10.40;99.90
20416;DHT22;10367;52.202;5.996;2024-02-21T12:08:07;10.40;99.90
20416;DHT22;10367;52.202;5.996;2024-02-21T12:10:36;10.30;99.90
20416;DHT22;10367;52.202;5.996;2024-02-21T12:13:06;10.30;99.90
20416;DHT22;10367;52.202;5.996;2024-02-21T12:15:35;10.30;99.90
20416;DHT22;10367;52.202;5.996;2024-02-21T12:18:04;10.30;99.90
20416;DHT22;10367;52.202;5.996;2024-02-21T12:20:34;10.20;99.90
20416;DHT22;10367;52.202;5.996;2024-02-21T12:23:04;10.20;99.90
20416;DHT22;10367;52.202;5.996;2024-02-21T12:25:34;10.20;99.90
20416;DHT22;10367;52.202;5.996;2024-02-21T12:28:03;10.30;99.90
20416;DHT22;10367;52.202;5.996;2024-02-21T12:30:32;10.50;99.90
20416;DHT22;10367;52.202;5.996;2024-02-21T12:33:03;10.70;99.90
20416;DHT22;10367;52.202;5.996;2024-02-21T12:35:32;10.80;99.90
20416;DHT22;10367;52.202;5.996;2024-02-21T12:38:03;11.00;99.90
20416;DHT22;10367;52.202;5.996;2024-02-21T12:40:34;11.10;99.90
20416;DHT22;10367;52.202;5.996;2024-02-21T12:43:03;11.20;99.90
20416;DHT22;10367;52.202;5.996;2024-02-21T12:45:32;11.30;99.90
20416;DHT22;10367;52.202;5.996;2024-02-21T12:48:02;11.40;99.90
20416;DHT22;10367;52.202;5.996;2024-02-21T12:50:32;11.40;99.90
20416;DHT22;10367;52.202;5.996;2024-02-21T12:53:01;11.40;99.90
20416;DHT22;10367;52.202;5.996;2024-02-21T12:55:34;11.40;99.90
20416;DHT22;10367;52.202;5.996;2024-02-21T12:58:03;11.40;99.90
20416;DHT22;10367;52.202;5.996;2024-02-21T13:00:34;11.40;99.90
20416;DHT22;10367;52.202;5.996;2024-02-21T13:03:04;11.30;99.90
20416;DHT22;10367;52.202;5.996;2024-02-21T13:05:33;11.40;99.90
20416;DHT22;10367;52.202;5.996;2024-02-21T13:08:02;11.30;99.90
20416;DHT22;10367;52.202;5.996;2024-02-21T13:10:31;11.30;99.90
20416;DHT22;10367;52.202;5.996;2024-02-21T13:13:05;11.30;99.90
20416;DHT22;10367;52.202;5.996;2024-02-21T13:15:34;11.30;99.90
20416;DHT22;10367;52.202;5.996;2024-02-21T13:18:04;11.30;99.90
20416;DHT22;10367;52.202;5.996;2024-02-21T13:20:33;11.30;99.90
20416;DHT22;10367;52.202;5.996;2024-02-21T13:23:03;11.30;99.90
20416;DHT22;10367;52.202;5.996;2024-02-21T13:25:32;11.30;99.90
20416;DHT22;10367;52.202;5.996;2024-02-21T13:28:01;11.40;99.90
20416;DHT22;10367;52.202;5.996;2024-02-21T13:30:31;11.30;99.90
20416;DHT22;10367;52.202;5.996;2024-02-21T13:33:00;11.30;99.90
20416;DHT22;10367;52.202;5.996;2024-02-21T13:35:30;11.20;99.90
20416;DHT22;10367;52.202;5.996;2024-02-21T13:37:59;11.20;99.90
20416;DHT22;10367;52.202;5.996;2024-02-21T13:40:28;11.30;99.90
20416;DHT22;10367;52.202;5.996;2024-02-21T13:42:57;11.30;99.90
20416;DHT22;10367;52.202;5.996;2024-02-21T13:45:26;11.30;99.90
20416;DHT22;10367;52.202;5.996;2024-02-21T13:47:57;11.40;99.90
20416;DHT22;10367;52.202;5.996;2024-02-21T13:50:30;11.40;99.90
20416;DHT22;10367;52.202;5.996;2024-02-21T13:52:59;11.30;99.90
20416;DHT22;10367;52.202;5.996;2024-02-21T13:55:29;11.40;99.90
20416;DHT22;10367;52.202;5.996;2024-02-21T13:57:57;11.40;99.90
20416;DHT22;10367;52.202;5.996;2024-02-21T14:00:26;11.30;99.90
20416;DHT22;10367;52.202;5.996;2024-02-21T14:02:57;11.30;99.90
20416;DHT22;10367;52.202;5.996;2024-02-21T14:05:27;11.30;99.90
20416;DHT22;10367;52.202;5.996;2024-02-21T14:07:56;11.30;99.90
20416;DHT22;10367;52.202;5.996;2024-02-21T14:10:25;11.30;99.90
20416;DHT22;10367;52.202;5.996;2024-02-21T14:12:54;11.20;99.90
20416;DHT22;10367;52.202;5.996;2024-02-21T14:15:24;11.20;99.90
20416;DHT22;10367;52.202;5.996;2024-02-21T14:17:53;11.10;99.90
20416;DHT22;10367;52.202;5.996;2024-02-21T14:20:25;11.20;99.90
20416;DHT22;10367;52.202;5.996;2024-02-21T14:22:54;11.20;99.90
20416;DHT22;10367;52.202;5.996;2024-02-21T14:25:23;11.20;99.90
20416;DHT22;10367;52.202;5.996;2024-02-21T14:27:52;11.20;99.90
20416;DHT22;10367;52.202;5.996;2024-02-21T14:30:21;11.30;99.90
20416;DHT22;10367;52.202;5.996;2024-02-21T14:32:49;11.30;99.90
20416;DHT22;10367;52.202;5.996;2024-02-21T14:35:18;11.30;99.90
20416;DHT22;10367;52.202;5.996;2024-02-21T14:37:49;11.20;99.90
20416;DHT22;10367;52.202;5.996;2024-02-21T14:40:18;11.20;99.90
20416;DHT22;10367;52.202;5.996;2024-02-21T14:42:48;11.20;99.90
20416;DHT22;10367;52.202;5.996;2024-02-21T14:45:20;11.20;99.90
20416;DHT22;10367;52.202;5.996;2024-02-21T14:47:50;11.20;99.90
20416;DHT22;10367;52.202;5.996;2024-02-21T14:50:22;11.10;99.90
20416;DHT22;10367;52.202;5.996;2024-02-21T14:52:54;11.10;99.90
20416;DHT22;10367;52.202;5.996;2024-02-21T14:55:23;11.10;99.90
20416;DHT22;10367;52.202;5.996;2024-02-21T14:57:52;11.10;99.90
20416;DHT22;10367;52.202;5.996;2024-02-21T15:00:21;11.10;99.90
20416;DHT22;10367;52.202;5.996;2024-02-21T15:02:57;11.10;99.90
20416;DHT22;10367;52.202;5.996;2024-02-21T15:05:27;11.10;99.90
20416;DHT22;10367;52.202;5.996;2024-02-21T15:07:59;11.10;99.90
20416;DHT22;10367;52.202;5.996;2024-02-21T15:10:28;11.00;99.90
20416;DHT22;10367;52.202;5.996;2024-02-21T15:12:57;11.00;99.90
20416;DHT22;10367;52.202;5.996;2024-02-21T15:15:27;11.00;99.90
20416;DHT22;10367;52.202;5.996;2024-02-21T15:17:56;11.00;99.90
20416;DHT22;10367;52.202;5.996;2024-02-21T15:20:25;11.00;99.90
20416;DHT22;10367;52.202;5.996;2024-02-21T15:22:55;10.90;99.90
20416;DHT22;10367;52.202;5.996;2024-02-21T15:25:26;10.90;99.90
20416;DHT22;10367;52.202;5.996;2024-02-21T15:27:55;10.80;99.90
20416;DHT22;10367;52.202;5.996;2024-02-21T15:30:24;10.80;99.90
20416;DHT22;10367;52.202;5.996;2024-02-21T15:32:54;10.70;99.90
20416;DHT22;10367;52.202;5.996;2024-02-21T15:35:25;10.70;99.90
20416;DHT22;10367;52.202;5.996;2024-02-21T15:37:55;10.60;99.90
20416;DHT22;10367;52.202;5.996;2024-02-21T15:40:26;10.50;99.90
20416;DHT22;10367;52.202;5.996;2024-02-21T15:42:57;10.40;99.90
20416;DHT22;10367;52.202;5.996;2024-02-21T15:45:25;10.40;99.90
20416;DHT22;10367;52.202;5.996;2024-02-21T15:47:54;10.20;99.90
20416;DHT22;10367;52.202;5.996;2024-02-21T15:50:23;10.10;99.90
20416;DHT22;10367;52.202;5.996;2024-02-21T15:52:55;10.10;99.90
20416;DHT22;10367;52.202;5.996;2024-02-21T15:55:26;10.00;99.90